createdAt,value
2023-02-14T00:03:23.804Z,80.02
2023-02-14T00:08:27.420Z,80.17
2023-02-14T00:13:30.995Z,80.16
2023-02-14T00:18:52.526Z,80.21
2023-02-14T00:23:55.984Z,80.04
2023-02-14T00:28:59.665Z,80.09
2023-02-14T00:34:03.213Z,80.34
2023-02-14T00:39:09.027Z,80.44
2023-02-14T00:44:14.674Z,80.41
2023-02-14T00:49:18.514Z,80.52
2023-02-14T00:54:22.101Z,80.56
2023-02-14T00:59:25.875Z,80.61
2023-02-14T01:04:29.638Z,80.57
2023-02-14T01:09:33.404Z,80.65
2023-02-14T01:14:38.777Z,80.63
2023-02-14T01:19:42.111Z,80.74
2023-02-14T01:24:45.698Z,80.77
2023-02-14T01:29:49.215Z,80.81
2023-02-14T01:34:52.761Z,80.96
2023-02-14T01:39:56.290Z,80.92
2023-02-14T01:45:03.599Z,81.00
2023-02-14T01:50:12.040Z,81.00
2023-02-14T01:55:19.398Z,81.11
2023-02-14T02:00:41.743Z,81.21
2023-02-14T02:05:50.079Z,81.22
2023-02-14T02:10:53.601Z,81.21
2023-02-14T02:16:13.112Z,81.30
2023-02-14T02:22:06.878Z,81.27
2023-02-14T02:27:40.133Z,81.21
2023-02-14T02:33:20.280Z,81.17
2023-02-14T02:38:38.179Z,81.22
2023-02-14T02:43:51.746Z,81.21
2023-02-14T02:49:05.618Z,81.11
2023-02-14T02:54:16.646Z,80.79
2023-02-14T02:59:24.380Z,80.84
2023-02-14T03:04:52.822Z,80.82
2023-02-14T03:09:58.614Z,80.90
2023-02-14T03:15:11.975Z,80.72
2023-02-14T03:20:22.062Z,80.54
2023-02-14T03:25:36.998Z,80.52
2023-02-14T03:30:52.760Z,80.61
2023-02-14T03:36:01.913Z,80.49
2023-02-14T03:41:12.455Z,80.57
2023-02-14T03:46:22.042Z,80.35
2023-02-14T03:51:27.930Z,80.53
2023-02-14T03:56:37.068Z,80.47
2023-02-14T04:01:47.941Z,80.52
2023-02-14T04:06:51.848Z,80.55
2023-02-14T04:11:55.405Z,80.31
2023-02-14T04:17:17.516Z,80.45
2023-02-14T04:22:20.249Z,80.56
2023-02-14T04:27:23.629Z,80.69
2023-02-14T04:32:27.224Z,80.61
2023-02-14T04:37:30.925Z,80.59
2023-02-14T04:42:34.426Z,80.54
2023-02-14T04:47:37.920Z,80.36
2023-02-14T04:52:41.866Z,80.25
2023-02-14T04:57:45.312Z,80.32
2023-02-14T05:02:48.955Z,80.53
2023-02-14T05:07:52.656Z,80.46
2023-02-14T05:12:56.221Z,80.43
2023-02-14T05:18:02.313Z,80.26
2023-02-14T05:23:12.877Z,80.24
2023-02-14T05:28:16.874Z,80.31
2023-02-14T05:33:20.395Z,80.35
2023-02-14T05:38:23.929Z,80.37
2023-02-14T05:43:27.758Z,80.17
2023-02-14T05:48:31.309Z,80.13
2023-02-14T05:53:35.524Z,80.14
2023-02-14T05:58:39.121Z,80.09
2023-02-14T06:03:42.653Z,80.02
2023-02-14T06:08:46.377Z,80.08
2023-02-14T06:13:49.879Z,80.13
2023-02-14T06:18:53.356Z,80.24
2023-02-14T06:23:56.919Z,79.97
2023-02-14T06:29:00.404Z,80.17
2023-02-14T06:34:03.836Z,80.14
2023-02-14T06:39:07.266Z,80.31
2023-02-14T06:44:10.866Z,80.21
2023-02-14T06:49:14.529Z,80.27
2023-02-14T06:54:18.193Z,80.29
2023-02-14T06:59:22.078Z,80.31
2023-02-14T07:04:25.774Z,80.13
2023-02-14T07:09:29.802Z,80.18
2023-02-14T07:14:33.363Z,80.24
2023-02-14T07:19:37.228Z,79.93
2023-02-14T07:24:41.626Z,80.01
2023-02-14T07:29:45.140Z,79.95
2023-02-14T07:34:48.777Z,79.83
2023-02-14T07:39:52.251Z,79.97
2023-02-14T07:44:55.961Z,79.85
2023-02-14T07:49:59.537Z,79.60
2023-02-14T07:55:02.988Z,79.71
2023-02-14T08:00:09.365Z,79.31
2023-02-14T08:05:16.423Z,79.47
2023-02-14T08:10:20.323Z,79.01
2023-02-14T08:15:44.564Z,79.09
2023-02-14T08:20:49.386Z,79.04
2023-02-14T08:25:53.523Z,78.88
2023-02-14T08:31:02.489Z,78.74
2023-02-14T08:36:06.933Z,78.88
2023-02-14T08:41:10.605Z,78.68
2023-02-14T08:46:16.191Z,78.49
2023-02-14T08:51:20.256Z,78.25
2023-02-14T08:56:26.696Z,78.36
2023-02-14T09:01:30.362Z,77.91
2023-02-14T09:06:37.131Z,77.98
2023-02-14T09:11:41.104Z,77.95
2023-02-14T09:16:44.703Z,77.64
2023-02-14T09:21:48.480Z,77.09
2023-02-14T09:26:52.348Z,77.64
2023-02-14T09:31:57.754Z,77.73
2023-02-14T09:37:01.536Z,77.56
2023-02-14T09:42:33.761Z,77.70
2023-02-14T09:47:43.757Z,77.36
2023-02-14T09:52:49.759Z,76.51
2023-02-14T09:58:12.566Z,76.45
2023-02-14T10:03:56.565Z,76.11
2023-02-14T10:09:10.917Z,76.02
2023-02-14T10:14:17.865Z,75.71
2023-02-14T10:19:28.927Z,75.63
2023-02-14T10:24:38.340Z,75.74
2023-02-14T10:29:42.339Z,76.24
2023-02-14T10:34:48.353Z,75.43
2023-02-14T10:40:05.608Z,75.56
2023-02-14T10:45:19.325Z,76.14
2023-02-14T10:50:31.917Z,75.49
2023-02-14T10:55:43.780Z,74.89
2023-02-14T11:00:55.366Z,74.20
2023-02-14T11:05:58.935Z,74.45
2023-02-14T11:11:11.241Z,74.91
2023-02-14T11:16:29.327Z,74.84
2023-02-14T11:21:38.489Z,74.15
2023-02-14T11:26:47.110Z,73.56
2023-02-14T11:31:51.246Z,74.07
2023-02-14T11:36:55.125Z,73.59
2023-02-14T11:42:01.070Z,73.91
2023-02-14T11:47:20.774Z,73.83
2023-02-14T11:52:28.373Z,73.00
2023-02-14T11:57:35.370Z,72.72
2023-02-14T12:02:41.911Z,72.42
2023-02-14T12:07:48.189Z,71.91
2023-02-14T12:12:58.814Z,72.35
2023-02-14T12:18:17.821Z,72.32
2023-02-14T12:23:26.969Z,71.84
2023-02-14T12:28:38.839Z,71.44
2023-02-14T12:33:42.473Z,71.41
2023-02-14T12:38:55.564Z,71.49
2023-02-14T12:44:05.784Z,71.87
2023-02-14T12:49:32.102Z,71.95
2023-02-14T12:54:49.456Z,71.43
2023-02-14T13:00:03.201Z,71.66
2023-02-14T13:05:16.729Z,71.61
2023-02-14T13:10:30.290Z,71.50
2023-02-14T13:15:42.171Z,71.09
2023-02-14T13:20:51.078Z,71.16
2023-02-14T13:26:01.138Z,71.60
2023-02-14T13:31:05.672Z,70.99
2023-02-14T13:36:12.253Z,71.14
2023-02-14T13:41:16.986Z,70.93
2023-02-14T13:46:42.774Z,71.17
2023-02-14T13:51:48.626Z,71.28
2023-02-14T13:56:52.267Z,71.22
2023-02-14T14:01:56.385Z,71.43
2023-02-14T14:07:18.933Z,71.09
2023-02-14T14:12:39.549Z,71.33
2023-02-14T14:17:45.381Z,71.11
2023-02-14T14:22:51.054Z,71.25
2023-02-14T14:27:54.518Z,71.69
2023-02-14T14:33:13.529Z,71.12
2023-02-14T14:38:17.157Z,71.39
2023-02-14T14:43:27.233Z,71.48
2023-02-14T14:48:33.352Z,71.25
2023-02-14T14:53:43.983Z,71.55
2023-02-14T14:58:47.520Z,71.73
2023-02-14T15:03:51.399Z,71.76
2023-02-14T15:08:56.101Z,71.59
2023-02-14T15:14:05.353Z,71.58
2023-02-14T15:19:33.871Z,71.92
2023-02-14T15:24:41.590Z,71.94
2023-02-14T15:29:55.937Z,72.17
2023-02-14T15:35:11.061Z,72.26
2023-02-14T15:40:24.113Z,72.06
2023-02-14T15:45:37.001Z,71.99
2023-02-14T15:50:48.212Z,72.18
2023-02-14T15:56:02.598Z,72.28
2023-02-14T16:01:13.332Z,72.61
2023-02-14T16:06:36.765Z,72.61
2023-02-14T16:11:41.343Z,72.61
2023-02-14T16:17:02.379Z,72.89
2023-02-14T16:22:08.604Z,72.93
2023-02-14T16:27:13.205Z,72.99
2023-02-14T16:32:22.720Z,73.05
2023-02-14T16:37:33.790Z,73.16
2023-02-14T16:42:40.280Z,72.73
2023-02-14T16:47:53.770Z,72.77
2023-02-14T16:53:00.845Z,73.15
2023-02-14T16:58:05.925Z,73.24
2023-02-14T17:03:13.140Z,73.35
2023-02-14T17:08:18.275Z,73.48
2023-02-14T17:13:33.110Z,73.60
2023-02-14T17:18:37.943Z,73.62
2023-02-14T17:23:42.852Z,73.79
2023-02-14T17:28:47.257Z,73.64
2023-02-14T17:33:56.530Z,73.48
2023-02-14T17:39:02.865Z,73.56
2023-02-14T17:44:09.674Z,73.43
2023-02-14T17:49:16.184Z,73.18
2023-02-14T17:54:30.194Z,73.52
2023-02-14T17:59:34.892Z,73.69
2023-02-14T18:04:58.704Z,73.79
2023-02-14T18:10:05.958Z,74.19
2023-02-14T18:15:11.946Z,74.06
2023-02-14T18:20:16.616Z,74.06
2023-02-14T18:25:20.737Z,73.99
2023-02-14T18:30:25.282Z,74.11
2023-02-14T18:35:30.839Z,74.29
2023-02-14T18:40:40.976Z,74.25
2023-02-14T18:45:44.330Z,74.47
2023-02-14T18:50:48.093Z,74.49
2023-02-14T18:55:51.580Z,74.62
2023-02-14T19:00:56.070Z,74.84
2023-02-14T19:06:00.415Z,74.93
2023-02-14T19:11:04.783Z,75.10
2023-02-14T19:16:13.060Z,75.24
2023-02-14T19:21:19.271Z,75.24
2023-02-14T19:26:25.249Z,75.47
2023-02-14T19:31:30.361Z,75.58
2023-02-14T19:36:36.969Z,75.56
2023-02-14T19:41:41.815Z,75.52
2023-02-14T19:46:49.852Z,75.44
2023-02-14T19:51:58.203Z,75.42
2023-02-14T19:57:02.445Z,75.49
2023-02-14T20:02:17.358Z,75.40
2023-02-14T20:07:22.455Z,75.49
2023-02-14T20:12:26.550Z,75.44
2023-02-14T20:17:34.526Z,75.59
2023-02-14T20:22:38.602Z,75.71
2023-02-14T20:27:46.836Z,75.85
2023-02-14T20:32:54.344Z,75.95
2023-02-14T20:38:02.388Z,76.17
2023-02-14T20:43:07.696Z,76.30
2023-02-14T20:48:14.276Z,76.42
2023-02-14T20:53:25.631Z,76.60
2023-02-14T20:58:31.658Z,76.83
2023-02-14T21:03:38.268Z,76.78
2023-02-14T21:08:46.485Z,77.12
2023-02-14T21:13:58.599Z,77.50
2023-02-14T21:19:04.336Z,77.57
2023-02-14T21:24:10.222Z,77.96
2023-02-14T21:29:14.412Z,77.89
2023-02-14T21:34:18.109Z,77.93
2023-02-14T21:39:26.897Z,77.99
2023-02-14T21:44:49.843Z,78.22
2023-02-14T21:50:12.128Z,78.35
2023-02-14T21:55:17.753Z,78.51
2023-02-14T22:00:22.842Z,78.56
2023-02-14T22:05:27.307Z,78.77
2023-02-14T22:10:32.753Z,78.98
2023-02-14T22:15:42.895Z,79.02
2023-02-14T22:20:48.084Z,79.00
2023-02-14T22:25:52.512Z,79.33
2023-02-14T22:31:00.424Z,79.33
2023-02-14T22:36:06.900Z,79.36
2023-02-14T22:41:13.970Z,79.54
2023-02-14T22:46:20.112Z,79.80
2023-02-14T22:51:26.464Z,79.85
2023-02-14T22:56:34.070Z,80.04
2023-02-14T23:01:38.838Z,80.09
2023-02-14T23:06:43.221Z,80.34
2023-02-14T23:11:48.100Z,80.82
2023-02-14T23:17:10.684Z,81.01
2023-02-14T23:22:20.599Z,81.25
2023-02-14T23:27:26.800Z,81.44
2023-02-14T23:32:30.781Z,81.69
2023-02-14T23:37:34.914Z,81.73
2023-02-14T23:42:40.373Z,81.72
2023-02-14T23:47:44.857Z,81.80
2023-02-14T23:53:05.478Z,81.92
2023-02-14T23:58:09.283Z,81.90
